Time;durP1;ratioP1;P1;durP2;ratioP2;P2;SDS_P1;SDS_P2;PMS_P1;PMS_P2;Temp;Humidity;BMP_temperature;BMP_pressure;BME280_temperature;BME280_humidity;BME280_pressure;Samples;Min_cycle;Max_cycle;Signal;HPM_P1;HPM_P2
2023/03/01 00:01:50;0.00;0.00;0.62;0.00;0.00;0.62;2.53;1.93;;;22.00;21.60;;;;;;2263574;61;20364;-69
2023/03/01 00:04:35;0.00;0.00;0.62;0.00;0.00;0.62;2.67;2.03;;;22.10;21.70;;;;;;2260690;61;20380;-66
2023/03/01 00:07:20;0.00;0.00;0.62;0.00;0.00;0.62;3.23;2.00;;;22.10;21.70;;;;;;2264352;61;20364;-66
2023/03/01 00:10:06;0.00;0.00;0.62;0.00;0.00;0.62;2.33;1.73;;;22.00;21.70;;;;;;2263543;61;20892;-66
2023/03/01 00:12:51;0.00;0.00;0.62;0.00;0.00;0.62;2.40;1.93;;;22.00;21.70;;;;;;2264360;61;20385;-67
2023/03/01 00:15:41;0.00;0.00;0.62;0.00;0.00;0.62;2.60;2.00;;;22.00;21.70;;;;;;2263776;61;20415;-66
2023/03/01 00:18:26;0.00;0.00;0.62;0.00;0.00;0.62;2.30;1.70;;;22.00;21.70;;;;;;2264541;61;20400;-66
2023/03/01 00:21:10;0.00;0.00;0.62;0.00;0.00;0.62;2.47;2.07;;;22.00;21.70;;;;;;2264213;61;20395;-66
2023/03/01 00:23:56;0.00;0.00;0.62;0.00;0.00;0.62;2.40;1.77;;;22.00;21.70;;;;;;2263495;61;20376;-66
2023/03/01 00:26:40;0.00;0.00;0.62;0.00;0.00;0.62;2.30;1.90;;;22.00;21.70;;;;;;2264632;61;20880;-66
2023/03/01 00:29:25;0.00;0.00;0.62;0.00;0.00;0.62;2.83;2.10;;;21.90;21.60;;;;;;2264180;61;20363;-65
2023/03/01 00:32:11;0.00;0.00;0.62;0.00;0.00;0.62;2.53;2.00;;;21.90;21.60;;;;;;2263758;61;20840;-67
2023/03/01 00:34:56;0.00;0.00;0.62;0.00;0.00;0.62;3.27;2.30;;;21.90;21.60;;;;;;2261017;61;20380;-64
2023/03/01 00:37:41;0.00;0.00;0.62;0.00;0.00;0.62;3.53;2.30;;;21.90;21.60;;;;;;2260215;61;20411;-66
2023/03/01 00:40:27;0.00;0.00;0.62;0.00;0.00;0.62;2.40;1.70;;;21.90;21.60;;;;;;2260724;61;20768;-67
2023/03/01 00:43:12;0.00;0.00;0.62;0.00;0.00;0.62;2.87;1.93;;;21.90;21.60;;;;;;2264240;61;20372;-67
2023/03/01 00:46:01;0.00;0.00;0.62;0.00;0.00;0.62;2.80;1.73;;;21.90;21.60;;;;;;2260192;61;20356;-66
2023/03/01 00:48:47;0.00;0.00;0.62;0.00;0.00;0.62;2.63;1.87;;;21.90;21.60;;;;;;2261022;61;20357;-66
2023/03/01 00:51:33;0.00;0.00;0.62;0.00;0.00;0.62;2.30;1.70;;;21.90;21.60;;;;;;2264391;61;20380;-66
2023/03/01 00:54:18;0.00;0.00;0.62;0.00;0.00;0.62;2.50;1.83;;;21.90;21.70;;;;;;2263403;61;20837;-66
2023/03/01 00:57:03;0.00;0.00;0.62;0.00;0.00;0.62;2.00;1.63;;;21.90;21.60;;;;;;2264219;61;20776;-65
2023/03/01 00:59:47;0.00;0.00;0.62;0.00;0.00;0.62;2.70;1.90;;;21.80;21.60;;;;;;2263416;61;20360;-66
2023/03/01 01:02:33;0.00;0.00;0.62;0.00;0.00;0.62;2.00;1.60;;;21.80;21.60;;;;;;2261079;61;20360;-66
2023/03/01 01:05:20;0.00;0.00;0.62;0.00;0.00;0.62;2.43;1.77;;;21.80;21.60;;;;;;2261113;61;20490;-66
2023/03/01 01:08:05;0.00;0.00;0.62;0.00;0.00;0.62;2.23;1.80;;;21.80;21.60;;;;;;2263493;61;20395;-66
2023/03/01 01:10:50;0.00;0.00;0.62;0.00;0.00;0.62;2.50;1.50;;;21.80;21.60;;;;;;2260526;61;20411;-65
2023/03/01 01:13:36;0.00;0.00;0.62;0.00;0.00;0.62;2.63;1.83;;;21.80;21.60;;;;;;2260888;61;20932;-66
2023/03/01 01:16:24;0.00;0.00;0.62;0.00;0.00;0.62;2.20;2.00;;;21.80;21.60;;;;;;2263316;61;20388;-67
2023/03/01 01:19:10;0.00;0.00;0.62;0.00;0.00;0.62;3.27;2.27;;;21.80;21.60;;;;;;2260493;61;20363;-64
2023/03/01 01:21:56;0.00;0.00;0.62;0.00;0.00;0.62;2.33;1.80;;;21.80;21.60;;;;;;2263751;61;20360;-66
2023/03/01 01:24:41;0.00;0.00;0.62;0.00;0.00;0.62;2.40;1.90;;;21.70;21.60;;;;;;2260882;61;20383;-66
2023/03/01 01:27:26;0.00;0.00;0.62;0.00;0.00;0.62;2.23;1.77;;;21.70;21.50;;;;;;2261102;61;20355;-66
2023/03/01 01:30:12;0.00;0.00;0.62;0.00;0.00;0.62;2.77;1.90;;;21.70;21.60;;;;;;2262940;61;20363;-67
2023/03/01 01:32:57;0.00;0.00;0.62;0.00;0.00;0.62;2.30;1.60;;;21.70;21.60;;;;;;2264238;61;20464;-67
2023/03/01 01:35:45;0.00;0.00;0.62;0.00;0.00;0.62;2.03;1.63;;;21.70;21.60;;;;;;2260812;61;21000;-66
2023/03/01 01:38:31;0.00;0.00;0.62;0.00;0.00;0.62;2.53;2.03;;;21.70;21.60;;;;;;2260171;61;20400;-66
2023/03/01 01:41:17;0.00;0.00;0.62;0.00;0.00;0.62;2.40;1.83;;;21.70;21.60;;;;;;2260938;61;20395;-66
2023/03/01 01:44:18;0.00;0.00;0.62;0.00;0.00;0.62;2.83;2.03;;;21.70;21.60;;;;;;2260124;61;20423;-66
2023/03/01 01:47:07;0.00;0.00;0.62;0.00;0.00;0.62;2.40;1.70;;;21.70;21.60;;;;;;2264166;61;20342;-69
2023/03/01 01:49:55;0.00;0.00;0.62;0.00;0.00;0.62;2.00;1.67;;;21.70;21.60;;;;;;2260639;61;20365;-67
2023/03/01 01:52:41;0.00;0.00;0.62;0.00;0.00;0.62;3.43;2.27;;;21.70;21.60;;;;;;2260012;61;20380;-70
2023/03/01 01:55:27;0.00;0.00;0.62;0.00;0.00;0.62;2.20;1.50;;;21.70;21.60;;;;;;2264035;61;20426;-66
2023/03/01 01:58:17;0.00;0.00;0.62;0.00;0.00;0.62;3.47;1.70;;;21.60;21.60;;;;;;2264169;61;20900;-66
2023/03/01 02:01:04;0.00;0.00;0.62;0.00;0.00;0.62;1.93;1.40;;;21.60;21.50;;;;;;2263685;61;20360;-65
2023/03/01 02:03:37;0.00;0.00;0.62;0.00;0.00;0.62;2.70;2.17;;;21.60;21.50;;;;;;2260099;61;20962;-66
2023/03/01 02:06:11;0.00;0.00;0.62;0.00;0.00;0.62;2.33;1.50;;;21.60;21.50;;;;;;2259862;61;20352;-65
2023/03/01 02:08:42;0.00;0.00;0.62;0.00;0.00;0.62;2.17;1.57;;;21.60;21.50;;;;;;2259999;61;20356;-66
2023/03/01 02:11:11;0.00;0.00;0.62;0.00;0.00;0.62;2.23;1.67;;;21.60;21.60;;;;;;2259912;61;20536;-68
2023/03/01 02:13:38;0.00;0.00;0.62;0.00;0.00;0.62;2.40;1.60;;;21.60;21.50;;;;;;2259603;61;20391;-66
2023/03/01 02:16:08;0.00;0.00;0.62;0.00;0.00;0.62;2.50;1.80;;;21.60;21.50;;;;;;2263478;61;20420;-65
2023/03/01 02:18:34;0.00;0.00;0.62;0.00;0.00;0.62;2.67;1.83;;;21.60;21.50;;;;;;2264052;61;20365;-65
2023/03/01 02:21:17;0.00;0.00;0.62;0.00;0.00;0.62;2.40;1.83;;;21.60;21.50;;;;;;2263217;61;20892;-69
2023/03/01 02:24:12;0.00;0.00;0.62;0.00;0.00;0.62;3.00;2.10;;;21.60;21.50;;;;;;2260650;61;20376;-65
2023/03/01 02:27:00;0.00;0.00;0.62;0.00;0.00;0.62;2.80;1.80;;;21.60;21.50;;;;;;2257961;61;20955;-66
2023/03/01 02:29:46;0.00;0.00;0.62;0.00;0.00;0.62;2.30;1.60;;;21.60;21.50;;;;;;2263021;61;20407;-65
2023/03/01 02:32:31;0.00;0.00;0.62;0.00;0.00;0.62;3.60;1.93;;;21.60;21.50;;;;;;2261549;61;20372;-66
2023/03/01 02:35:18;0.00;0.00;0.62;0.00;0.00;0.62;2.53;2.00;;;21.60;21.50;;;;;;2261386;61;20387;-65
2023/03/01 02:38:07;0.00;0.00;0.62;0.00;0.00;0.62;2.57;2.10;;;21.60;21.50;;;;;;2264459;61;20368;-65
2023/03/01 02:40:54;0.00;0.00;0.62;0.00;0.00;0.62;2.27;1.60;;;21.60;21.50;;;;;;2264029;61;20953;-65
2023/03/01 02:43:40;0.00;0.00;0.62;0.00;0.00;0.62;2.40;1.50;;;21.60;21.50;;;;;;2260495;61;20384;-66
2023/03/01 02:46:26;0.00;0.00;0.62;0.00;0.00;0.62;2.70;1.80;;;21.60;21.50;;;;;;2264466;61;20359;-66
2023/03/01 02:49:26;0.00;0.00;0.62;0.00;0.00;0.62;1.87;1.40;;;21.60;21.50;;;;;;2264123;61;20376;-66
2023/03/01 02:52:40;0.00;0.00;0.62;0.00;0.00;0.62;2.37;1.70;;;21.60;21.40;;;;;;2260610;61;20763;-65
2023/03/01 02:55:25;0.00;0.00;0.62;0.00;0.00;0.62;3.20;1.93;;;21.60;21.50;;;;;;2261234;61;20380;-65
2023/03/01 02:58:10;0.00;0.00;0.62;0.00;0.00;0.62;2.40;1.60;;;21.60;21.40;;;;;;2264442;61;20359;-65
2023/03/01 03:00:56;0.00;0.00;0.62;0.00;0.00;0.62;2.47;1.80;;;21.50;21.40;;;;;;2261109;61;20451;-65
2023/03/01 03:03:42;0.00;0.00;0.62;0.00;0.00;0.62;2.33;1.83;;;21.50;21.40;;;;;;2261308;61;20434;-67
2023/03/01 03:06:27;0.00;0.00;0.62;0.00;0.00;0.62;2.20;1.80;;;21.50;21.40;;;;;;2264136;61;20364;-66
2023/03/01 03:09:14;0.00;0.00;0.62;0.00;0.00;0.62;2.10;1.67;;;21.50;21.40;;;;;;2260965;61;20392;-66
2023/03/01 03:11:59;0.00;0.00;0.62;0.00;0.00;0.62;2.23;1.47;;;21.50;21.40;;;;;;2258686;61;20364;-65
2023/03/01 03:14:44;0.00;0.00;0.62;0.00;0.00;0.62;2.60;1.80;;;21.50;21.40;;;;;;2260492;61;20422;-68
2023/03/01 03:17:28;0.00;0.00;0.62;0.00;0.00;0.62;3.33;1.80;;;21.50;21.40;;;;;;2264587;61;20359;-66
2023/03/01 03:20:20;0.00;0.00;0.62;0.00;0.00;0.62;2.87;2.23;;;21.50;21.40;;;;;;2263995;61;20872;-66
2023/03/01 03:23:05;0.00;0.00;0.62;0.00;0.00;0.62;2.00;1.60;;;21.50;21.30;;;;;;2263737;61;20400;-66
2023/03/01 03:25:51;0.00;0.00;0.62;0.00;0.00;0.62;1.97;1.30;;;21.50;21.40;;;;;;2264371;61;20376;-66
2023/03/01 03:28:39;0.00;0.00;0.62;0.00;0.00;0.62;2.30;1.90;;;21.40;21.30;;;;;;2263877;61;20407;-66
2023/03/01 03:31:24;0.00;0.00;0.62;0.00;0.00;0.62;2.47;2.10;;;21.40;21.30;;;;;;2261044;61;20406;-66
2023/03/01 03:34:17;0.00;0.00;0.62;0.00;0.00;0.62;2.37;1.80;;;21.40;21.30;;;;;;2264326;61;20399;-66
2023/03/01 03:38:01;0.00;0.00;0.62;0.00;0.00;0.62;2.60;1.70;;;21.40;21.30;;;;;;2263588;61;20388;-66
2023/03/01 03:40:15;0.00;0.00;0.62;0.00;0.00;0.62;2.50;1.90;;;21.40;21.30;;;;;;2263910;61;20376;-66
2023/03/01 03:43:00;0.00;0.00;0.62;0.00;0.00;0.62;2.73;1.90;;;21.40;21.30;;;;;;2263659;61;21059;-66
2023/03/01 03:45:45;0.00;0.00;0.62;0.00;0.00;0.62;1.93;1.47;;;21.40;21.30;;;;;;2264676;61;20348;-66
2023/03/01 03:48:30;0.00;0.00;0.62;0.00;0.00;0.62;2.67;2.00;;;21.40;21.30;;;;;;2264585;61;20359;-66
2023/03/01 03:51:17;0.00;0.00;0.62;0.00;0.00;0.62;2.77;1.80;;;21.40;21.30;;;;;;2263640;61;20450;-65
2023/03/01 03:54:03;0.00;0.00;0.62;0.00;0.00;0.62;2.90;2.00;;;21.40;21.30;;;;;;2264453;61;20445;-65
2023/03/01 03:56:48;0.00;0.00;0.62;0.00;0.00;0.62;2.30;1.57;;;21.30;21.80;;;;;;2264479;61;20431;-66
2023/03/01 03:59:33;0.00;0.00;0.62;0.00;0.00;0.62;2.20;1.80;;;21.30;21.30;;;;;;2263884;61;20391;-65
2023/03/01 04:02:21;0.00;0.00;0.62;0.00;0.00;0.62;2.40;1.70;;;21.30;21.30;;;;;;2264407;61;20422;-65
2023/03/01 04:05:08;0.00;0.00;0.62;0.00;0.00;0.62;2.33;1.70;;;21.30;21.30;;;;;;2263616;61;20363;-66
2023/03/01 04:08:00;0.00;0.00;0.62;0.00;0.00;0.62;2.73;1.93;;;21.30;21.30;;;;;;2264505;61;20363;-65
2023/03/01 04:10:49;0.00;0.00;0.62;0.00;0.00;0.62;2.50;2.00;;;21.30;21.30;;;;;;2264107;61;20387;-66
2023/03/01 04:13:34;0.00;0.00;0.62;0.00;0.00;0.62;1.97;1.70;;;21.30;21.30;;;;;;2263559;61;20380;-66
2023/03/01 04:16:19;0.00;0.00;0.62;0.00;0.00;0.62;2.10;1.70;;;21.30;21.30;;;;;;2261194;61;20436;-70
2023/03/01 04:19:06;0.00;0.00;0.62;0.00;0.00;0.62;2.53;1.90;;;21.20;21.20;;;;;;2263856;61;20876;-67
2023/03/01 04:21:50;0.00;0.00;0.62;0.00;0.00;0.62;2.40;1.80;;;21.20;21.20;;;;;;2260880;61;20364;-66
2023/03/01 04:24:36;0.00;0.00;0.62;0.00;0.00;0.62;2.23;1.70;;;21.20;21.20;;;;;;2264194;61;20375;-67
2023/03/01 04:27:22;0.00;0.00;0.62;0.00;0.00;0.62;2.23;1.70;;;21.20;21.20;;;;;;2263781;61;20403;-66
2023/03/01 04:30:11;0.00;0.00;0.62;0.00;0.00;0.62;1.87;1.40;;;21.20;21.20;;;;;;2264065;61;20387;-66
2023/03/01 04:32:56;0.00;0.00;0.62;0.00;0.00;0.62;2.90;1.93;;;21.20;21.20;;;;;;2264161;61;20443;-65
2023/03/01 04:35:41;0.00;0.00;0.62;0.00;0.00;0.62;2.53;1.83;;;21.20;21.20;;;;;;2263915;61;20758;-66
2023/03/01 04:38:25;0.00;0.00;0.62;0.00;0.00;0.62;2.80;1.70;;;21.20;21.20;;;;;;2264660;61;20427;-67
2023/03/01 04:41:11;0.00;0.00;0.62;0.00;0.00;0.62;2.57;1.87;;;21.20;21.20;;;;;;2263960;61;20478;-66
2023/03/01 04:43:59;0.00;0.00;0.62;0.00;0.00;0.62;2.40;1.83;;;21.20;21.20;;;;;;2263826;61;20439;-66
2023/03/01 04:46:44;0.00;0.00;0.62;0.00;0.00;0.62;2.60;1.47;;;21.20;21.20;;;;;;2264338;61;20395;-66
2023/03/01 04:49:29;0.00;0.00;0.62;0.00;0.00;0.62;2.27;1.60;;;21.20;21.30;;;;;;2263235;61;20396;-66
2023/03/01 04:52:13;0.00;0.00;0.62;0.00;0.00;0.62;2.30;1.90;;;21.10;21.20;;;;;;2264417;61;20364;-66
2023/03/01 04:54:58;0.00;0.00;0.62;0.00;0.00;0.62;2.50;1.90;;;21.10;21.20;;;;;;2264195;61;20790;-66
2023/03/01 04:57:43;0.00;0.00;0.62;0.00;0.00;0.62;2.30;1.50;;;21.10;21.20;;;;;;2263695;61;20356;-66
2023/03/01 05:00:29;0.00;0.00;0.62;0.00;0.00;0.62;2.40;1.80;;;21.10;21.20;;;;;;2263841;61;21146;-66
2023/03/01 05:03:17;0.00;0.00;0.62;0.00;0.00;0.62;2.53;2.10;;;21.10;21.20;;;;;;2263998;61;20430;-65
2023/03/01 05:06:03;0.00;0.00;0.62;0.00;0.00;0.62;2.60;2.03;;;21.10;21.20;;;;;;2264002;61;20379;-66
2023/03/01 05:08:47;0.00;0.00;0.62;0.00;0.00;0.62;2.67;1.80;;;21.10;21.20;;;;;;2264231;61;20363;-66
2023/03/01 05:11:35;0.00;0.00;0.62;0.00;0.00;0.62;2.60;1.63;;;21.10;21.20;;;;;;2263656;61;20364;-65
2023/03/01 05:14:20;0.00;0.00;0.62;0.00;0.00;0.62;3.00;1.97;;;21.10;21.20;;;;;;2264288;61;20920;-65
2023/03/01 05:17:06;0.00;0.00;0.62;0.00;0.00;0.62;2.23;1.80;;;21.00;21.20;;;;;;2264001;61;20474;-65
2023/03/01 05:19:51;0.00;0.00;0.62;0.00;0.00;0.62;2.27;1.67;;;21.00;21.20;;;;;;2263281;61;20426;-66
2023/03/01 05:22:36;0.00;0.00;0.62;0.00;0.00;0.62;2.43;1.80;;;21.00;21.10;;;;;;2263846;61;20368;-66
2023/03/01 05:25:21;0.00;0.00;0.62;0.00;0.00;0.62;2.30;1.80;;;21.00;21.20;;;;;;2261061;61;20376;-65
2023/03/01 05:28:10;0.00;0.00;0.62;0.00;0.00;0.62;2.27;1.77;;;21.00;21.20;;;;;;2263489;61;20395;-65
2023/03/01 05:30:55;0.00;0.00;0.62;0.00;0.00;0.62;2.20;1.67;;;21.00;21.20;;;;;;2263937;61;20636;-65
2023/03/01 05:33:42;0.00;0.00;0.62;0.00;0.00;0.62;2.40;2.00;;;21.00;21.20;;;;;;2263306;61;20395;-65
2023/03/01 05:36:27;0.00;0.00;0.62;0.00;0.00;0.62;2.30;1.20;;;21.00;21.20;;;;;;2264172;61;20912;-65
2023/03/01 05:39:12;0.00;0.00;0.62;0.00;0.00;0.62;2.17;1.50;;;21.00;21.20;;;;;;2263916;61;20392;-65
2023/03/01 05:41:59;0.00;0.00;0.62;0.00;0.00;0.62;2.10;1.80;;;21.00;21.20;;;;;;2263426;61;20900;-66
2023/03/01 05:44:44;0.00;0.00;0.62;0.00;0.00;0.62;2.50;1.90;;;21.00;21.20;;;;;;2263947;61;20431;-65
2023/03/01 05:47:31;0.00;0.00;0.62;0.00;0.00;0.62;2.07;1.37;;;20.90;21.10;;;;;;2264290;61;20947;-65
2023/03/01 05:50:20;0.00;0.00;0.62;0.00;0.00;0.62;2.23;1.40;;;20.90;21.20;;;;;;2263063;61;20391;-66
2023/03/01 05:53:07;0.00;0.00;0.62;0.00;0.00;0.62;2.57;1.67;;;20.90;21.10;;;;;;2264137;61;20684;-66
2023/03/01 05:55:52;0.00;0.00;0.62;0.00;0.00;0.62;2.30;1.90;;;20.90;21.10;;;;;;2260197;61;20480;-65
2023/03/01 05:58:38;0.00;0.00;0.62;0.00;0.00;0.62;1.93;1.37;;;20.90;21.20;;;;;;2264316;61;20368;-67
2023/03/01 06:01:23;0.00;0.00;0.62;0.00;0.00;0.62;2.60;1.70;;;20.90;21.10;;;;;;2264013;61;20364;-66
2023/03/01 06:04:07;0.00;0.00;0.62;0.00;0.00;0.62;2.10;1.53;;;20.90;21.10;;;;;;2260016;61;20454;-66
2023/03/01 06:06:53;0.00;0.00;0.62;0.00;0.00;0.62;2.27;1.80;;;20.90;21.20;;;;;;2264798;61;20352;-66
2023/03/01 06:09:38;0.00;0.00;0.62;0.00;0.00;0.62;2.47;1.80;;;20.90;21.10;;;;;;2264619;61;20442;-67
2023/03/01 06:12:22;0.00;0.00;0.62;0.00;0.00;0.62;2.83;1.90;;;20.90;21.10;;;;;;2263983;61;20395;-65
2023/03/01 06:15:10;0.00;0.00;0.62;0.00;0.00;0.62;2.13;1.70;;;20.90;21.20;;;;;;2265036;61;20394;-68
2023/03/01 06:17:59;0.00;0.00;0.62;0.00;0.00;0.62;2.10;1.70;;;20.80;21.10;;;;;;2264379;61;20412;-67
2023/03/01 06:20:53;0.00;0.00;0.62;0.00;0.00;0.62;2.60;1.97;;;20.80;21.10;;;;;;2264588;61;20360;-65
2023/03/01 06:23:39;0.00;0.00;0.62;0.00;0.00;0.62;2.30;1.80;;;20.80;21.10;;;;;;2264673;61;20451;-64
2023/03/01 06:26:24;0.00;0.00;0.62;0.00;0.00;0.62;3.03;1.77;;;20.80;21.10;;;;;;2260946;61;20848;-65
2023/03/01 06:29:09;0.00;0.00;0.62;0.00;0.00;0.62;2.83;1.87;;;20.80;21.10;;;;;;2261245;61;20888;-66
2023/03/01 06:31:54;0.00;0.00;0.62;0.00;0.00;0.62;2.60;2.10;;;20.80;21.10;;;;;;2264791;61;20772;-66
2023/03/01 06:34:39;0.00;0.00;0.62;0.00;0.00;0.62;1.87;1.67;;;20.80;21.10;;;;;;2263778;61;20379;-65
2023/03/01 06:37:24;0.00;0.00;0.62;0.00;0.00;0.62;3.70;2.33;;;20.80;21.10;;;;;;2264635;61;20479;-65
2023/03/01 06:40:11;0.00;0.00;0.62;0.00;0.00;0.62;2.53;1.90;;;20.80;21.10;;;;;;2264151;61;20392;-65
2023/03/01 06:42:56;0.00;0.00;0.62;0.00;0.00;0.62;2.60;2.17;;;20.80;21.20;;;;;;2264536;61;20396;-68
2023/03/01 06:45:42;0.00;0.00;0.62;0.00;0.00;0.62;2.80;1.90;;;20.80;21.10;;;;;;2264860;61;20403;-66
2023/03/01 06:48:27;0.00;0.00;0.62;0.00;0.00;0.62;2.67;2.20;;;20.80;21.10;;;;;;2264077;61;20371;-65
2023/03/01 06:51:12;0.00;0.00;0.62;0.00;0.00;0.62;2.30;1.80;;;20.80;21.10;;;;;;2264578;61;20829;-66
2023/03/01 06:53:57;0.00;0.00;0.62;0.00;0.00;0.62;2.67;2.00;;;20.70;21.10;;;;;;2264514;61;20411;-66
2023/03/01 06:56:46;0.00;0.00;0.62;0.00;0.00;0.62;3.40;2.50;;;20.70;21.10;;;;;;2263950;61;20388;-66
2023/03/01 06:59:31;0.00;0.00;0.62;0.00;0.00;0.62;3.00;2.60;;;20.70;21.10;;;;;;2264365;61;20816;-68
2023/03/01 07:02:16;0.00;0.00;0.62;0.00;0.00;0.62;2.80;2.27;;;20.70;21.10;;;;;;2261104;61;20928;-66
2023/03/01 07:05:01;0.00;0.00;0.62;0.00;0.00;0.62;2.60;1.83;;;20.70;21.10;;;;;;2264545;61;20886;-66
2023/03/01 07:07:46;0.00;0.00;0.62;0.00;0.00;0.62;2.67;2.43;;;20.70;21.10;;;;;;2264547;61;20456;-66
2023/03/01 07:10:31;0.00;0.00;0.62;0.00;0.00;0.62;2.80;1.87;;;20.70;21.10;;;;;;2263533;61;20375;-66
2023/03/01 07:13:17;0.00;0.00;0.62;0.00;0.00;0.62;2.50;2.10;;;20.70;21.10;;;;;;2264451;61;20414;-65
2023/03/01 07:16:02;0.00;0.00;0.62;0.00;0.00;0.62;2.30;2.07;;;20.70;21.10;;;;;;2264480;61;20983;-66
2023/03/01 07:18:47;0.00;0.00;0.62;0.00;0.00;0.62;2.70;2.17;;;20.70;21.10;;;;;;2263733;61;20822;-65
2023/03/01 07:21:32;0.00;0.00;0.62;0.00;0.00;0.62;2.50;2.00;;;20.70;21.10;;;;;;2264686;61;20368;-65
2023/03/01 07:24:16;0.00;0.00;0.62;0.00;0.00;0.62;3.27;2.00;;;20.70;21.10;;;;;;2263718;61;20400;-66
2023/03/01 07:27:01;0.00;0.00;0.62;0.00;0.00;0.62;2.27;1.60;;;20.70;21.10;;;;;;2264332;61;20375;-66
2023/03/01 07:29:47;0.00;0.00;0.62;0.00;0.00;0.62;3.63;2.17;;;20.70;21.10;;;;;;2264142;61;20438;-65
2023/03/01 07:32:32;0.00;0.00;0.62;0.00;0.00;0.62;2.70;2.50;;;20.70;21.10;;;;;;2263628;61;20368;-66
2023/03/01 07:35:16;0.00;0.00;0.62;0.00;0.00;0.62;3.27;2.07;;;20.70;21.10;;;;;;2264244;61;20367;-65
2023/03/01 07:38:01;0.00;0.00;0.62;0.00;0.00;0.62;2.77;1.90;;;20.70;21.10;;;;;;2264265;61;20351;-68
2023/03/01 07:40:45;0.00;0.00;0.62;0.00;0.00;0.62;2.90;2.50;;;20.70;21.10;;;;;;2263554;61;20361;-66
2023/03/01 07:43:34;0.00;0.00;0.62;0.00;0.00;0.62;3.37;2.47;;;20.60;21.00;;;;;;2264353;61;20380;-74
2023/03/01 07:46:20;0.00;0.00;0.62;0.00;0.00;0.62;2.43;1.97;;;20.70;21.10;;;;;;2264331;61;20398;-65
2023/03/01 07:49:05;0.00;0.00;0.62;0.00;0.00;0.62;3.20;2.17;;;20.60;21.00;;;;;;2263779;61;20777;-65
2023/03/01 07:51:50;0.00;0.00;0.62;0.00;0.00;0.62;3.23;2.17;;;20.60;21.00;;;;;;2264564;61;20449;-67
2023/03/01 07:54:34;0.00;0.00;0.62;0.00;0.00;0.62;2.80;2.03;;;20.60;21.00;;;;;;2263742;61;20788;-66
2023/03/01 07:57:20;0.00;0.00;0.62;0.00;0.00;0.62;2.43;2.10;;;20.60;21.10;;;;;;2264599;61;20438;-66
2023/03/01 08:00:06;0.00;0.00;0.62;0.00;0.00;0.62;2.50;1.83;;;20.70;21.20;;;;;;2264189;61;20767;-66
2023/03/01 08:03:01;0.00;0.00;0.62;0.00;0.00;0.62;2.27;1.80;;;20.70;21.20;;;;;;2263659;61;20383;-66
2023/03/01 08:05:47;0.00;0.00;0.62;0.00;0.00;0.62;2.77;2.23;;;20.70;21.20;;;;;;2264475;61;20359;-66
2023/03/01 08:08:32;0.00;0.00;0.62;0.00;0.00;0.62;1.90;1.43;;;20.70;21.20;;;;;;2264328;61;20414;-68
2023/03/01 08:11:17;0.00;0.00;0.62;0.00;0.00;0.62;2.83;2.00;;;20.60;21.10;;;;;;2263915;61;20588;-66
2023/03/01 08:14:02;0.00;0.00;0.62;0.00;0.00;0.62;2.77;2.13;;;20.70;21.20;;;;;;2264231;61;20782;-66
2023/03/01 08:16:49;0.00;0.00;0.62;0.00;0.00;0.62;2.50;2.17;;;20.60;21.10;;;;;;2263580;61;20392;-66
2023/03/01 08:19:36;0.00;0.00;0.62;0.00;0.00;0.62;2.80;1.80;;;20.60;21.20;;;;;;2263903;61;20410;-66
2023/03/01 08:22:20;0.00;0.00;0.62;0.00;0.00;0.62;3.03;1.80;;;20.70;21.20;;;;;;2264474;61;20766;-65
2023/03/01 08:25:06;0.00;0.00;0.62;0.00;0.00;0.62;2.73;1.80;;;20.60;21.10;;;;;;2263476;61;20452;-66
2023/03/01 08:27:50;0.00;0.00;0.62;0.00;0.00;0.62;3.00;2.17;;;20.60;21.20;;;;;;2264093;61;20360;-66
2023/03/01 08:30:35;0.00;0.00;0.62;0.00;0.00;0.62;2.00;1.50;;;20.60;21.20;;;;;;2264090;61;20772;-66
2023/03/01 08:33:20;0.00;0.00;0.62;0.00;0.00;0.62;2.60;1.90;;;20.60;21.20;;;;;;2263808;61;20407;-70
2023/03/01 08:36:07;0.00;0.00;0.62;0.00;0.00;0.62;2.93;1.97;;;20.60;21.20;;;;;;2261122;61;20418;-69
2023/03/01 08:38:52;0.00;0.00;0.62;0.00;0.00;0.62;2.40;1.70;;;20.70;21.30;;;;;;2260323;61;20411;-67
2023/03/01 08:41:38;0.00;0.00;0.62;0.00;0.00;0.62;2.90;2.30;;;20.70;21.30;;;;;;2264088;61;20363;-68
2023/03/01 08:44:22;0.00;0.00;0.62;0.00;0.00;0.62;2.03;1.77;;;20.70;21.30;;;;;;2259650;61;20475;-66
2023/03/01 08:47:07;0.00;0.00;0.62;0.00;0.00;0.62;3.37;2.30;;;20.70;21.30;;;;;;2262004;61;20420;-66
2023/03/01 08:49:52;0.00;0.00;0.62;0.00;0.00;0.62;2.33;1.70;;;20.70;21.30;;;;;;2264002;61;20776;-69
2023/03/01 08:52:39;0.00;0.00;0.62;0.00;0.00;0.62;3.10;2.03;;;20.70;21.30;;;;;;2264329;61;20970;-67
2023/03/01 08:55:24;0.00;0.00;0.62;0.00;0.00;0.62;2.13;1.60;;;20.70;21.30;;;;;;2260382;61;20395;-66
2023/03/01 08:58:09;0.00;0.00;0.62;0.00;0.00;0.62;2.57;2.03;;;20.70;21.30;;;;;;2264257;61;20791;-67
2023/03/01 09:00:53;0.00;0.00;0.62;0.00;0.00;0.62;3.40;2.13;;;20.70;21.30;;;;;;2263359;61;20363;-66
2023/03/01 09:03:38;0.00;0.00;0.62;0.00;0.00;0.62;2.40;1.97;;;20.70;21.30;;;;;;2264141;61;20424;-66
2023/03/01 09:06:23;0.00;0.00;0.62;0.00;0.00;0.62;2.27;1.67;;;20.80;21.40;;;;;;2264447;61;20356;-66
2023/03/01 09:09:15;0.00;0.00;0.62;0.00;0.00;0.62;2.73;2.07;;;20.70;21.30;;;;;;2259816;61;20414;-66
2023/03/01 09:12:01;0.00;0.00;0.62;0.00;0.00;0.62;2.60;2.00;;;20.70;21.30;;;;;;2264409;61;20364;-65
2023/03/01 09:14:46;0.00;0.00;0.62;0.00;0.00;0.62;2.93;2.50;;;20.70;21.40;;;;;;2264050;61;20772;-65
2023/03/01 09:17:31;0.00;0.00;0.62;0.00;0.00;0.62;4.00;2.20;;;20.80;21.40;;;;;;2263460;61;20994;-67
2023/03/01 09:20:16;0.00;0.00;0.62;0.00;0.00;0.62;2.87;2.57;;;20.80;21.40;;;;;;2264007;61;20414;-65
2023/03/01 09:23:01;0.00;0.00;0.62;0.00;0.00;0.62;3.70;2.33;;;20.80;21.40;;;;;;2263551;61;20387;-67
2023/03/01 09:25:47;0.00;0.00;0.62;0.00;0.00;0.62;2.33;1.57;;;20.80;21.40;;;;;;2264121;61;20360;-64
2023/03/01 09:28:32;0.00;0.00;0.62;0.00;0.00;0.62;3.17;2.20;;;20.80;21.40;;;;;;2261059;61;20368;-65
2023/03/01 09:31:22;0.00;0.00;0.62;0.00;0.00;0.62;3.10;2.20;;;20.80;21.40;;;;;;2263220;61;20439;-65
2023/03/01 09:34:07;0.00;0.00;0.62;0.00;0.00;0.62;3.63;2.33;;;20.80;21.40;;;;;;2260952;61;20384;-66
2023/03/01 09:36:53;0.00;0.00;0.62;0.00;0.00;0.62;2.80;2.20;;;20.80;21.40;;;;;;2260668;61;20425;-66
2023/03/01 09:39:38;0.00;0.00;0.62;0.00;0.00;0.62;2.53;1.97;;;20.80;21.50;;;;;;2263124;61;20468;-66
2023/03/01 09:42:24;0.00;0.00;0.62;0.00;0.00;0.62;4.70;2.93;;;20.90;21.50;;;;;;2264796;61;20888;-64
2023/03/01 09:45:20;0.00;0.00;0.62;0.00;0.00;0.62;4.20;2.60;;;20.90;21.60;;;;;;2264637;61;20931;-66
2023/03/01 09:48:12;0.00;0.00;0.62;0.00;0.00;0.62;3.43;2.87;;;20.90;21.60;;;;;;2265189;61;20455;-65
2023/03/01 09:50:57;0.00;0.00;0.62;0.00;0.00;0.62;3.80;3.03;;;20.90;21.60;;;;;;2264907;61;20836;-65
2023/03/01 09:53:42;0.00;0.00;0.62;0.00;0.00;0.62;4.53;3.83;;;20.90;21.60;;;;;;2263589;61;20853;-66
2023/03/01 09:56:33;0.00;0.00;0.62;0.00;0.00;0.62;3.87;3.20;;;20.90;21.60;;;;;;2265012;61;20924;-65
2023/03/01 09:59:25;0.00;0.00;0.62;0.00;0.00;0.62;3.47;2.70;;;21.00;21.70;;;;;;2264922;61;20433;-65
2023/03/01 10:02:27;0.00;0.00;0.62;0.00;0.00;0.62;4.10;3.13;;;21.00;21.70;;;;;;2264775;61;20371;-66
2023/03/01 10:05:28;0.00;0.00;0.62;0.00;0.00;0.62;3.87;3.10;;;21.00;21.70;;;;;;2264865;61;20406;-66
2023/03/01 10:08:30;0.00;0.00;0.62;0.00;0.00;0.62;4.50;3.10;;;21.00;21.70;;;;;;2261259;61;20482;-65
2023/03/01 10:11:23;0.00;0.00;0.62;0.00;0.00;0.62;3.90;2.77;;;21.00;21.70;;;;;;2264834;61;20817;-65
2023/03/01 10:14:35;0.00;0.00;0.62;0.00;0.00;0.62;3.93;3.00;;;21.00;21.70;;;;;;2265030;61;20426;-67
2023/03/01 10:17:30;0.00;0.00;0.62;0.00;0.00;0.62;3.80;3.10;;;21.00;21.70;;;;;;2264733;61;20399;-66
2023/03/01 10:20:20;0.00;0.00;0.62;0.00;0.00;0.62;3.53;3.23;;;21.10;21.80;;;;;;2261399;61;20418;-66
2023/03/01 10:23:08;0.00;0.00;0.62;0.00;0.00;0.62;3.97;3.27;;;21.10;21.80;;;;;;2264033;61;20383;-67
2023/03/01 10:26:11;0.00;0.00;0.62;0.00;0.00;0.62;4.23;3.43;;;21.10;21.80;;;;;;2265015;61;20425;-66
2023/03/01 10:29:03;0.00;0.00;0.62;0.00;0.00;0.62;3.90;3.10;;;21.10;21.80;;;;;;2264778;61;20434;-66
2023/03/01 10:31:51;0.00;0.00;0.62;0.00;0.00;0.62;3.70;3.30;;;21.20;21.90;;;;;;2264556;61;20414;-66
2023/03/01 10:34:36;0.00;0.00;0.62;0.00;0.00;0.62;4.47;3.30;;;21.20;21.90;;;;;;2264732;61;20425;-67
2023/03/01 10:37:24;0.00;0.00;0.62;0.00;0.00;0.62;4.30;3.03;;;21.20;21.90;;;;;;2263921;61;20958;-67
2023/03/01 10:40:11;0.00;0.00;0.62;0.00;0.00;0.62;3.60;2.93;;;21.20;21.90;;;;;;2264031;61;20364;-65
2023/03/01 10:43:00;0.00;0.00;0.62;0.00;0.00;0.62;4.43;3.73;;;21.30;22.00;;;;;;2264698;61;20779;-66
2023/03/01 10:45:46;0.00;0.00;0.62;0.00;0.00;0.62;4.73;3.20;;;21.30;22.00;;;;;;2263948;61;20368;-66
2023/03/01 10:48:32;0.00;0.00;0.62;0.00;0.00;0.62;3.80;3.40;;;21.30;22.00;;;;;;2264398;61;20360;-66
2023/03/01 10:51:20;0.00;0.00;0.62;0.00;0.00;0.62;4.43;3.60;;;21.30;22.00;;;;;;2264373;61;20367;-66
2023/03/01 10:54:14;0.00;0.00;0.62;0.00;0.00;0.62;4.20;3.40;;;21.30;22.00;;;;;;2258061;61;20518;-66
2023/03/01 10:57:02;0.00;0.00;0.62;0.00;0.00;0.62;4.40;3.70;;;21.40;22.00;;;;;;2264567;61;20776;-66